Laughlin Air Force Base, TX

18:50 CDT le 27 mai 2015 (GMT -0500)
Del Rio Laughlin AFB | | Change Station
CLOSE
Current Station
Aéroport
Location: Del Rio Laughlin AFB,
Altitude: 1083 ft
Stations météo à proximité

Alt. 1083 ft 29.36 °N, 100.78 °W | Updated 52 minutes ago

Partiellement nuageux
Partiellement nuageux
85 ° F
Paraît 92 ° F
N
17
Vent Variable Vent de SE

Aujourd'hui
Haut(e) -- | Bas -- ° F
--% Risque de précip.
Hier
Haut(e) -- | Bas -- ° F
Precip. -- pouce
6:45 AM 8:35 PM
Lune gibbeuse croissante, 71% visible
Pression 29.89 pouce
Visibilité 10.0 Miles terrestres
Nuages Ciel dégagé
indice de chaleur 92 ° F
Point de rosée 75 ° F
Humidité 72%
Précipitations 0.00 pouce
Profondeur de la couche neigeuse Non disponible.
UV 3 sur 12
Pollen 4.70 sur 12
Qualité de l'air Non disponible.
Flu Activity Sporadic
METAR KDLF 272258Z AUTO 13015KT 10SM CLR 29/24 A2993 RMK AO2 SLP122 T02920238

More Conditions Fewer Conditions

Pression 29.89 pouce
Visibilité 10.0 Miles terrestres
Nuages Ciel dégagé
indice de chaleur 92 ° F
Point de rosée 75 ° F
Humidité 72%
Précipitations 0.00 pouce
Profondeur de la couche neigeuse Non disponible.
UV 3 sur 12
Pollen 4.70 sur 12
Qualité de l'air Non disponible.
Flu Activity Sporadic
METAR KDLF 272258Z AUTO 13015KT 10SM CLR 29/24 A2993 RMK AO2 SLP122 T02920238

More Conditions Fewer Conditions

10-Day Weather Forecast

Almanac

Astronomie

May. 27, 2015 Lever Coucher
Temps réel
Crépuscule civil
Crépuscule nautique
Crépuscule astronomique
Lune
Durée de lumière visible
Longueur du jour
Tomorrow will be .
, % of the Moon is Illuminated

Extrêmes aujourd'hui

State Highs State Lows

Community

WunderPhotos

Upload Photos

1,824,825 Photos téléchargées !

WunderBlogs® & News

Nearby

Qualité de l'air

  Qualité de l'air Indice de la qualité de l'air Polluant
Not available.

Épaisseur de neige

Station Depth Altitude

Activité sismique

Ville Distance Mag. Time & Date
Minimum magnitude displayed is 2.5.

Températures des eaux côtières

Lieu Température

Stations

Stations météo à proximité

Emplacement de la station Température Refroidissement éolien Point de rosée Humidité Vent Precip. Alt. Mise à jour Type